createdAt,value
2023-01-23T00:00:58.320Z,0.00
2023-01-23T00:01:58.313Z,0.00
2023-01-23T00:02:58.299Z,0.00
2023-01-23T00:03:58.359Z,0.00
2023-01-23T00:04:58.282Z,0.00
2023-01-23T00:05:58.264Z,0.00
2023-01-23T00:06:58.256Z,0.00
2023-01-23T00:07:58.239Z,0.00
2023-01-23T00:08:58.254Z,0.00
2023-01-23T00:09:58.334Z,0.00
2023-01-23T00:10:58.225Z,0.00
2023-01-23T00:11:58.198Z,0.00
2023-01-23T00:12:58.182Z,0.00
2023-01-23T00:13:58.174Z,0.00
2023-01-23T00:14:58.160Z,0.00
2023-01-23T00:15:58.188Z,0.00
2023-01-23T00:16:58.176Z,0.00
2023-01-23T00:17:58.129Z,0.00
2023-01-23T00:18:58.116Z,0.00
2023-01-23T00:19:58.103Z,0.00
2023-01-23T00:20:58.096Z,0.00
2023-01-23T00:21:58.085Z,0.00
2023-01-23T00:22:58.077Z,0.00
2023-01-23T00:23:58.083Z,0.00
2023-01-23T00:24:58.050Z,0.00
2023-01-23T00:25:58.147Z,0.00
2023-01-23T00:26:58.023Z,0.00
2023-01-23T00:27:58.013Z,0.00
2023-01-23T00:28:58.010Z,0.00
2023-01-23T00:29:57.995Z,0.00
2023-01-23T00:30:58.108Z,0.00
2023-01-23T00:31:58.048Z,0.00
2023-01-23T00:32:57.965Z,0.00
2023-01-23T00:33:57.956Z,0.00
2023-01-23T00:34:57.965Z,0.00
2023-01-23T00:35:57.932Z,0.00
2023-01-23T00:36:57.923Z,0.00
2023-01-23T00:37:58.011Z,0.00
2023-01-23T00:38:57.890Z,0.00
2023-01-23T00:39:57.893Z,0.00
2023-01-23T00:40:57.871Z,0.00
2023-01-23T00:41:57.968Z,0.00
2023-01-23T00:42:57.841Z,0.00
2023-01-23T00:43:57.834Z,0.00
2023-01-23T00:44:57.827Z,0.00
2023-01-23T00:45:57.818Z,0.00
2023-01-23T00:46:57.809Z,0.00
2023-01-23T00:47:57.791Z,0.00
2023-01-23T00:48:57.783Z,0.00
2023-01-23T00:49:57.760Z,0.00
2023-01-23T00:50:57.789Z,0.00
2023-01-23T00:51:57.739Z,0.00
2023-01-23T00:52:57.750Z,0.00
2023-01-23T00:53:57.719Z,0.00
2023-01-23T00:54:57.734Z,0.00
2023-01-23T00:55:57.693Z,0.00
2023-01-23T00:56:57.681Z,0.00
2023-01-23T00:57:57.787Z,0.00
2023-01-23T00:58:57.665Z,0.00
2023-01-23T00:59:57.650Z,0.00
2023-01-23T01:00:57.651Z,0.00
2023-01-23T01:01:57.713Z,0.00
2023-01-23T01:02:57.673Z,0.00
2023-01-23T01:03:57.601Z,0.00
2023-01-23T01:04:57.600Z,0.00
2023-01-23T01:05:57.586Z,0.00
2023-01-23T01:06:57.577Z,0.00
2023-01-23T01:07:57.554Z,0.00
2023-01-23T01:08:57.563Z,0.00
2023-01-23T01:09:57.541Z,0.00
2023-01-23T01:10:57.558Z,0.00
2023-01-23T01:11:57.512Z,0.00
2023-01-23T01:12:57.615Z,0.00
2023-01-23T01:13:57.599Z,0.00
2023-01-23T01:14:57.480Z,0.00
2023-01-23T01:15:57.549Z,0.00
2023-01-23T01:16:57.459Z,0.00
2023-01-23T01:17:57.443Z,0.00
2023-01-23T01:18:57.447Z,0.00
2023-01-23T01:19:57.417Z,0.00
2023-01-23T01:20:57.426Z,0.00
2023-01-23T01:21:57.394Z,0.00
2023-01-23T01:22:57.417Z,0.00
2023-01-23T01:23:57.371Z,0.00
2023-01-23T01:24:57.365Z,0.00
2023-01-23T01:25:57.349Z,0.00
2023-01-23T01:26:57.338Z,0.00
2023-01-23T01:27:57.344Z,0.00
2023-01-23T01:28:57.336Z,0.00
2023-01-23T01:29:57.415Z,0.00
2023-01-23T01:30:57.410Z,0.00
2023-01-23T01:31:57.325Z,0.00
2023-01-23T01:32:57.268Z,0.00
2023-01-23T01:33:57.266Z,0.00
2023-01-23T01:34:57.252Z,0.00
2023-01-23T01:35:57.246Z,0.00
2023-01-23T01:36:57.226Z,0.00
2023-01-23T01:37:57.211Z,0.00
2023-01-23T01:38:57.199Z,0.00
2023-01-23T01:39:57.193Z,0.00
2023-01-23T01:40:57.185Z,0.00
2023-01-23T01:41:57.171Z,0.00
2023-01-23T01:42:57.176Z,0.00
2023-01-23T01:43:57.206Z,0.00
2023-01-23T01:44:57.140Z,0.00
2023-01-23T01:45:57.233Z,0.00
2023-01-23T01:46:57.194Z,0.00
2023-01-23T01:47:57.114Z,0.00
2023-01-23T01:48:57.085Z,0.00
2023-01-23T01:49:57.083Z,0.00
2023-01-23T01:50:57.121Z,0.00
2023-01-23T01:51:57.058Z,0.00
2023-01-23T01:52:57.046Z,0.00
2023-01-23T01:53:57.027Z,0.00
2023-01-23T01:54:57.021Z,0.00
2023-01-23T01:55:57.014Z,0.00
2023-01-23T01:56:56.998Z,0.00
2023-01-23T01:57:56.982Z,0.00
2023-01-23T01:58:56.993Z,0.00
2023-01-23T01:59:56.960Z,0.00
2023-01-23T02:00:57.027Z,0.00
2023-01-23T02:01:57.077Z,0.00
2023-01-23T02:02:56.925Z,0.00
2023-01-23T02:03:56.919Z,0.00
2023-01-23T02:04:56.923Z,0.00
2023-01-23T02:05:56.892Z,0.00
2023-01-23T02:06:56.879Z,0.00
2023-01-23T02:07:56.868Z,0.00
2023-01-23T02:08:56.859Z,0.00
2023-01-23T02:09:56.846Z,0.00
2023-01-23T02:10:56.844Z,0.00
2023-01-23T02:11:56.823Z,0.00
2023-01-23T02:12:56.819Z,0.00
2023-01-23T02:13:56.796Z,0.00
2023-01-23T02:14:56.789Z,0.00
2023-01-23T02:15:56.837Z,0.00
2023-01-23T02:16:56.771Z,0.00
2023-01-23T02:17:56.872Z,0.00
2023-01-23T02:18:56.749Z,0.00
2023-01-23T02:19:56.732Z,0.00
2023-01-23T02:20:56.719Z,0.00
2023-01-23T02:21:56.709Z,0.00
2023-01-23T02:22:56.727Z,0.00
2023-01-23T02:23:56.692Z,0.00
2023-01-23T02:24:56.681Z,0.00
2023-01-23T02:25:56.662Z,0.00
2023-01-23T02:26:56.652Z,0.00
2023-01-23T02:27:56.651Z,0.00
2023-01-23T02:28:56.653Z,0.00
2023-01-23T02:29:56.620Z,0.00
2023-01-23T02:30:56.641Z,0.00
2023-01-23T02:31:56.755Z,0.00
2023-01-23T02:32:56.583Z,0.00
2023-01-23T02:33:56.688Z,0.00
2023-01-23T02:34:56.577Z,0.00
2023-01-23T02:35:56.552Z,0.00
2023-01-23T02:36:56.547Z,0.00
2023-01-23T02:37:56.529Z,0.00
2023-01-23T02:38:56.519Z,0.00
2023-01-23T02:39:56.515Z,0.00
2023-01-23T02:40:56.516Z,0.00
2023-01-23T02:41:56.483Z,0.00
2023-01-23T02:42:56.487Z,0.00
2023-01-23T02:43:56.458Z,0.00
2023-01-23T02:44:56.446Z,0.00
2023-01-23T02:45:56.464Z,0.00
2023-01-23T02:46:56.429Z,0.00
2023-01-23T02:47:56.420Z,0.00
2023-01-23T02:48:56.404Z,0.00
2023-01-23T02:49:56.508Z,0.00
2023-01-23T02:50:56.394Z,0.00
2023-01-23T02:51:56.379Z,0.00
2023-01-23T02:52:56.362Z,0.00
2023-01-23T02:53:56.345Z,0.00
2023-01-23T02:54:56.335Z,0.00
2023-01-23T02:55:56.325Z,0.00
2023-01-23T02:56:56.313Z,0.00
2023-01-23T02:57:56.302Z,0.00
2023-01-23T02:58:56.321Z,0.00
2023-01-23T02:59:56.278Z,0.00
2023-01-23T03:00:56.321Z,0.00
2023-01-23T03:01:56.299Z,0.00
2023-01-23T03:02:56.241Z,0.00
2023-01-23T03:03:56.228Z,0.00
2023-01-23T03:04:56.228Z,0.00
2023-01-23T03:05:56.320Z,0.00
2023-01-23T03:06:56.205Z,0.00
2023-01-23T03:07:56.189Z,0.00
2023-01-23T03:08:56.184Z,0.00
2023-01-23T03:09:56.162Z,0.00
2023-01-23T03:10:56.178Z,0.00
2023-01-23T03:11:56.147Z,0.00
2023-01-23T03:12:56.127Z,0.00
2023-01-23T03:13:56.117Z,0.00
2023-01-23T03:14:56.107Z,0.00
2023-01-23T03:15:56.092Z,0.00
2023-01-23T03:16:56.086Z,0.00
2023-01-23T03:17:56.071Z,0.00
2023-01-23T03:18:56.057Z,0.00
2023-01-23T03:19:56.054Z,0.00
2023-01-23T03:20:56.037Z,0.00
2023-01-23T03:21:56.139Z,0.00
2023-01-23T03:22:56.018Z,0.00
2023-01-23T03:23:56.003Z,0.00
2023-01-23T03:24:55.991Z,0.00
2023-01-23T03:25:55.978Z,0.00
2023-01-23T03:26:55.969Z,0.00
2023-01-23T03:27:55.959Z,0.00
2023-01-23T03:28:55.974Z,0.00
2023-01-23T03:29:55.935Z,0.00
2023-01-23T03:30:55.938Z,0.00
2023-01-23T03:31:55.975Z,0.00
2023-01-23T03:32:55.897Z,0.00
2023-01-23T03:33:55.886Z,0.00
2023-01-23T03:34:55.928Z,0.00
2023-01-23T03:35:55.864Z,0.00
2023-01-23T03:36:55.850Z,0.00
2023-01-23T03:37:55.955Z,0.00
2023-01-23T03:38:55.829Z,0.00
2023-01-23T03:39:55.817Z,0.00
2023-01-23T03:40:55.823Z,0.00
2023-01-23T03:41:55.797Z,0.00
2023-01-23T03:42:55.785Z,0.00
2023-01-23T03:43:55.771Z,0.00
2023-01-23T03:44:55.769Z,0.00
2023-01-23T03:45:55.806Z,0.00
2023-01-23T03:46:55.758Z,0.00
2023-01-23T03:47:55.727Z,0.00
2023-01-23T03:48:55.716Z,0.00
2023-01-23T03:49:55.704Z,0.00
2023-01-23T03:50:55.741Z,0.00
2023-01-23T03:51:55.682Z,0.00
2023-01-23T03:52:55.675Z,0.00
2023-01-23T03:53:55.779Z,0.00
2023-01-23T03:54:55.646Z,0.00
2023-01-23T03:55:55.636Z,0.00
2023-01-23T03:56:55.626Z,0.00
2023-01-23T03:57:55.615Z,0.00
2023-01-23T03:58:55.607Z,0.00
2023-01-23T03:59:55.592Z,0.00
2023-01-23T04:00:55.616Z,0.00
2023-01-23T04:01:55.573Z,0.00
2023-01-23T04:02:55.654Z,0.00
2023-01-23T04:03:55.550Z,0.00
2023-01-23T04:04:55.540Z,0.00
2023-01-23T04:05:55.523Z,0.00
2023-01-23T04:06:55.509Z,0.00
2023-01-23T04:07:55.502Z,0.00
2023-01-23T04:08:55.488Z,0.00
2023-01-23T04:09:55.592Z,0.00
2023-01-23T04:10:55.493Z,0.00
2023-01-23T04:11:55.453Z,0.00
2023-01-23T04:12:55.443Z,0.00
2023-01-23T04:13:55.428Z,0.00
2023-01-23T04:14:55.422Z,0.00
2023-01-23T04:15:55.415Z,0.00
2023-01-23T04:16:55.434Z,0.00
2023-01-23T04:17:55.384Z,0.00
2023-01-23T04:18:55.373Z,0.00
2023-01-23T04:19:55.367Z,0.00
2023-01-23T04:20:55.349Z,0.00
2023-01-23T04:21:55.340Z,0.00
2023-01-23T04:22:55.355Z,0.00
2023-01-23T04:23:55.324Z,0.00
2023-01-23T04:24:55.305Z,0.00
2023-01-23T04:25:55.408Z,0.00
2023-01-23T04:26:55.304Z,0.00
2023-01-23T04:27:55.276Z,0.00
2023-01-23T04:28:55.268Z,0.00
2023-01-23T04:29:55.248Z,0.00
2023-01-23T04:30:55.367Z,0.00
2023-01-23T04:31:55.224Z,0.00
2023-01-23T04:32:55.215Z,0.00
2023-01-23T04:33:55.212Z,0.00
2023-01-23T04:34:55.243Z,0.00
2023-01-23T04:35:55.178Z,0.00
2023-01-23T04:36:55.178Z,0.00
2023-01-23T04:37:55.156Z,0.00
2023-01-23T04:38:55.156Z,0.00
2023-01-23T04:39:55.135Z,0.00
2023-01-23T04:40:55.126Z,0.00
2023-01-23T04:41:55.225Z,0.00
2023-01-23T04:42:55.098Z,0.00
2023-01-23T04:43:55.091Z,0.00
2023-01-23T04:44:55.076Z,0.00
2023-01-23T04:45:55.115Z,0.00
2023-01-23T04:46:55.128Z,0.00
2023-01-23T04:47:55.048Z,0.00
2023-01-23T04:48:55.041Z,0.00
2023-01-23T04:49:55.020Z,0.00
2023-01-23T04:50:55.049Z,0.00
2023-01-23T04:51:54.997Z,0.00
2023-01-23T04:52:55.001Z,0.00
2023-01-23T04:53:54.978Z,0.00
2023-01-23T04:54:54.961Z,0.00
2023-01-23T04:55:54.955Z,0.00
2023-01-23T04:56:54.940Z,0.00
2023-01-23T04:57:55.046Z,0.00
2023-01-23T04:58:54.923Z,0.00
2023-01-23T04:59:54.908Z,0.00
2023-01-23T05:00:54.991Z,0.00
2023-01-23T05:01:54.887Z,0.00
2023-01-23T05:02:54.871Z,0.00
2023-01-23T05:03:54.859Z,0.00
2023-01-23T05:04:54.856Z,0.00
2023-01-23T05:05:54.838Z,0.00
2023-01-23T05:06:54.829Z,0.00
2023-01-23T05:07:54.818Z,0.00
2023-01-23T05:08:54.801Z,0.00
2023-01-23T05:09:54.789Z,0.00
2023-01-23T05:10:54.792Z,0.00
2023-01-23T05:11:54.773Z,0.00
2023-01-23T05:12:54.763Z,0.00
2023-01-23T05:13:54.858Z,0.00
2023-01-23T05:14:54.733Z,0.00
2023-01-23T05:15:54.741Z,0.00
2023-01-23T05:16:54.739Z,0.00
2023-01-23T05:17:54.699Z,0.00
2023-01-23T05:18:54.689Z,0.00
2023-01-23T05:19:54.677Z,0.00
2023-01-23T05:20:54.667Z,216.00
2023-01-23T05:21:54.653Z,396.00
2023-01-23T05:22:54.652Z,476.00
2023-01-23T05:23:54.632Z,480.00
2023-01-23T05:24:54.665Z,0.00
2023-01-23T05:25:54.607Z,0.00
2023-01-23T05:26:54.614Z,0.00
2023-01-23T05:27:54.590Z,0.00
2023-01-23T05:28:54.591Z,0.00
2023-01-23T05:29:54.584Z,0.00
2023-01-23T05:30:54.639Z,0.00
2023-01-23T05:31:54.542Z,0.00
2023-01-23T05:32:54.531Z,0.00
2023-01-23T05:33:54.530Z,0.00
2023-01-23T05:34:54.526Z,0.00
2023-01-23T05:35:54.509Z,0.00
2023-01-23T05:36:54.490Z,0.00
2023-01-23T05:37:54.472Z,0.00
2023-01-23T05:38:54.459Z,0.00
2023-01-23T05:39:54.449Z,0.00
2023-01-23T05:40:54.458Z,0.00
2023-01-23T05:41:54.427Z,0.00
2023-01-23T05:42:54.417Z,0.00
2023-01-23T05:43:54.402Z,0.00
2023-01-23T05:44:54.396Z,0.00
2023-01-23T05:45:54.545Z,0.00
2023-01-23T05:46:54.378Z,0.00
2023-01-23T05:47:54.362Z,0.00
2023-01-23T05:48:54.357Z,0.00
2023-01-23T05:49:54.337Z,0.00
2023-01-23T05:50:54.357Z,0.00
2023-01-23T05:51:54.315Z,0.00
2023-01-23T05:52:54.333Z,0.00
2023-01-23T05:53:54.288Z,0.00
2023-01-23T05:54:54.277Z,0.00
2023-01-23T05:55:54.267Z,0.00
2023-01-23T05:56:54.256Z,0.00
2023-01-23T05:57:54.265Z,0.00
2023-01-23T05:58:54.253Z,0.00
2023-01-23T05:59:54.221Z,0.00
2023-01-23T06:00:54.215Z,0.00
2023-01-23T06:01:54.313Z,0.00
2023-01-23T06:02:54.241Z,0.00
2023-01-23T06:03:54.238Z,0.00
2023-01-23T06:04:55.790Z,0.00
2023-01-23T06:05:54.153Z,0.00
2023-01-23T06:06:54.145Z,0.00
2023-01-23T06:07:54.128Z,0.00
2023-01-23T06:08:54.117Z,0.00
2023-01-23T06:09:54.120Z,0.00
2023-01-23T06:10:54.103Z,0.00
2023-01-23T06:11:54.093Z,0.00
2023-01-23T06:12:54.074Z,0.00
2023-01-23T06:13:54.061Z,0.00
2023-01-23T06:14:54.058Z,0.00
2023-01-23T06:15:54.062Z,0.00
2023-01-23T06:16:54.039Z,0.00
2023-01-23T06:17:54.184Z,0.00
2023-01-23T06:18:54.009Z,0.00
2023-01-23T06:19:53.992Z,0.00
2023-01-23T06:20:53.980Z,0.00
2023-01-23T06:21:53.995Z,0.00
2023-01-23T06:22:53.965Z,0.00
2023-01-23T06:23:53.963Z,0.00
2023-01-23T06:24:53.935Z,0.00
2023-01-23T06:25:53.928Z,0.00
2023-01-23T06:26:53.912Z,0.00
2023-01-23T06:27:55.073Z,0.00
2023-01-23T06:28:53.894Z,0.00
2023-01-23T06:29:53.879Z,0.00
2023-01-23T06:30:53.974Z,0.00
2023-01-23T06:31:53.957Z,0.00
2023-01-23T06:32:53.848Z,0.00
2023-01-23T06:33:53.953Z,0.00
2023-01-23T06:34:53.833Z,0.00
2023-01-23T06:35:53.811Z,0.00
2023-01-23T06:36:53.797Z,0.00
2023-01-23T06:37:53.791Z,0.00
2023-01-23T06:38:53.774Z,0.00
2023-01-23T06:39:53.763Z,0.00
2023-01-23T06:40:53.760Z,0.00
2023-01-23T06:41:53.747Z,4.00
2023-01-23T06:42:53.731Z,4.00
2023-01-23T06:43:53.727Z,4.00
2023-01-23T06:44:53.708Z,4.00
2023-01-23T06:45:53.714Z,4.00
2023-01-23T06:46:53.712Z,0.00
2023-01-23T06:47:53.674Z,4.00
2023-01-23T06:48:53.663Z,4.00
2023-01-23T06:49:53.673Z,4.00
2023-01-23T06:50:53.698Z,4.00
2023-01-23T06:51:53.630Z,4.00
2023-01-23T06:52:53.633Z,4.00
2023-01-23T06:53:53.609Z,8.00
2023-01-23T06:54:53.593Z,8.00
2023-01-23T06:55:53.621Z,4.00
2023-01-23T06:56:53.573Z,8.00
2023-01-23T06:57:53.564Z,8.00
2023-01-23T06:58:53.562Z,8.00
2023-01-23T06:59:53.539Z,8.00
2023-01-23T07:00:53.525Z,12.00
2023-01-23T07:01:53.578Z,12.00
2023-01-23T07:02:53.574Z,12.00
2023-01-23T07:03:53.497Z,12.00
2023-01-23T07:04:53.501Z,16.00
2023-01-23T07:05:53.582Z,12.00
2023-01-23T07:06:53.457Z,16.00
2023-01-23T07:07:53.452Z,16.00
2023-01-23T07:08:53.435Z,16.00
2023-01-23T07:09:53.426Z,20.00
2023-01-23T07:10:53.415Z,20.00
2023-01-23T07:11:53.403Z,20.00
2023-01-23T07:12:53.390Z,20.00
2023-01-23T07:13:53.378Z,24.00
2023-01-23T07:14:53.380Z,24.00
2023-01-23T07:15:53.384Z,28.00
2023-01-23T07:16:53.348Z,28.00
2023-01-23T07:17:53.331Z,28.00
2023-01-23T07:18:53.319Z,32.00
2023-01-23T07:19:53.307Z,32.00
2023-01-23T07:20:53.295Z,32.00
2023-01-23T07:21:53.407Z,36.00
2023-01-23T07:22:53.280Z,36.00
2023-01-23T07:23:53.265Z,36.00
2023-01-23T07:24:53.254Z,36.00
2023-01-23T07:25:53.238Z,40.00
2023-01-23T07:26:53.228Z,40.00
2023-01-23T07:27:53.217Z,48.00
2023-01-23T07:28:53.244Z,52.00
2023-01-23T07:29:53.194Z,56.00
2023-01-23T07:30:53.331Z,52.00
2023-01-23T07:31:53.265Z,60.00
2023-01-23T07:32:53.164Z,56.00
2023-01-23T07:33:53.147Z,64.00
2023-01-23T07:34:53.175Z,64.00
2023-01-23T07:35:53.125Z,64.00
2023-01-23T07:36:53.116Z,68.00
2023-01-23T07:37:53.218Z,64.00
2023-01-23T07:38:53.097Z,72.00
2023-01-23T07:39:53.080Z,72.00
2023-01-23T07:40:53.082Z,80.00
2023-01-23T07:41:53.057Z,84.00
2023-01-23T07:42:53.050Z,84.00
2023-01-23T07:43:53.036Z,80.00
2023-01-23T07:44:53.025Z,84.00
2023-01-23T07:45:53.014Z,80.00
2023-01-23T07:46:53.055Z,88.00
2023-01-23T07:47:52.989Z,88.00
2023-01-23T07:48:52.987Z,92.00
2023-01-23T07:49:52.979Z,92.00
2023-01-23T07:50:53.074Z,100.00
2023-01-23T07:51:52.947Z,96.00
2023-01-23T07:52:53.507Z,100.00
2023-01-23T07:53:53.040Z,104.00
2023-01-23T07:54:52.909Z,116.00
2023-01-23T07:55:52.896Z,112.00
2023-01-23T07:56:52.889Z,112.00
2023-01-23T07:57:52.881Z,120.00
2023-01-23T07:58:52.871Z,124.00
2023-01-23T07:59:52.854Z,124.00
2023-01-23T08:00:52.900Z,120.00
2023-01-23T08:01:52.828Z,132.00
2023-01-23T08:02:52.818Z,128.00
2023-01-23T08:03:52.879Z,132.00
2023-01-23T08:04:52.799Z,132.00
2023-01-23T08:05:52.783Z,136.00
2023-01-23T08:06:52.771Z,136.00
2023-01-23T08:08:07.397Z,128.00
2023-01-23T08:08:53.745Z,124.00
2023-01-23T08:09:52.863Z,128.00
2023-01-23T08:10:52.733Z,132.00
2023-01-23T08:11:52.717Z,120.00
2023-01-23T08:12:52.703Z,120.00
2023-01-23T08:13:52.694Z,116.00
2023-01-23T08:14:52.687Z,124.00
2023-01-23T08:15:52.671Z,140.00
2023-01-23T08:16:52.666Z,140.00
2023-01-23T08:17:52.647Z,144.00
2023-01-23T08:18:52.634Z,140.00
2023-01-23T08:19:52.631Z,140.00
2023-01-23T08:20:52.611Z,128.00
2023-01-23T08:21:52.602Z,128.00
2023-01-23T08:22:52.599Z,128.00
2023-01-23T08:23:52.577Z,136.00
2023-01-23T08:24:52.565Z,124.00
2023-01-23T08:25:52.667Z,136.00
2023-01-23T08:26:52.545Z,144.00
2023-01-23T08:27:52.547Z,164.00
2023-01-23T08:28:52.531Z,176.00
2023-01-23T08:29:52.518Z,180.00
2023-01-23T08:30:52.537Z,160.00
2023-01-23T08:31:52.524Z,168.00
2023-01-23T08:32:52.491Z,172.00
2023-01-23T08:33:52.466Z,180.00
2023-01-23T08:34:52.464Z,164.00
2023-01-23T08:35:52.441Z,172.00
2023-01-23T08:36:52.462Z,176.00
2023-01-23T08:37:52.426Z,168.00
2023-01-23T08:38:52.410Z,160.00
2023-01-23T08:39:52.398Z,172.00
2023-01-23T08:40:52.401Z,176.00
2023-01-23T08:41:52.496Z,180.00
2023-01-23T08:42:52.359Z,184.00
2023-01-23T08:43:52.356Z,176.00
2023-01-23T08:44:52.338Z,176.00
2023-01-23T08:45:52.364Z,180.00
2023-01-23T08:46:52.333Z,184.00
2023-01-23T08:47:52.302Z,184.00
2023-01-23T08:48:52.294Z,188.00
2023-01-23T08:49:52.282Z,176.00
2023-01-23T08:50:52.328Z,164.00
2023-01-23T08:51:52.279Z,168.00
2023-01-23T08:52:52.419Z,172.00
2023-01-23T08:53:52.239Z,168.00
2023-01-23T08:54:52.222Z,168.00
2023-01-23T08:55:52.216Z,168.00
2023-01-23T08:56:52.201Z,180.00
2023-01-23T08:57:52.208Z,188.00
2023-01-23T08:58:52.186Z,188.00
2023-01-23T08:59:52.168Z,184.00
2023-01-23T09:00:52.164Z,188.00
2023-01-23T09:01:52.216Z,196.00
2023-01-23T09:02:52.132Z,200.00
2023-01-23T09:03:52.126Z,204.00
2023-01-23T09:04:52.118Z,212.00
2023-01-23T09:05:52.107Z,204.00
2023-01-23T09:06:52.090Z,188.00
2023-01-23T09:07:52.080Z,192.00
2023-01-23T09:08:52.092Z,192.00
2023-01-23T09:09:52.055Z,208.00
2023-01-23T09:10:52.058Z,220.00
2023-01-23T09:11:52.048Z,212.00
2023-01-23T09:12:52.017Z,204.00
2023-01-23T09:13:53.963Z,204.00
2023-01-23T09:14:51.998Z,196.00
2023-01-23T09:15:51.986Z,208.00
2023-01-23T09:16:52.121Z,224.00
2023-01-23T09:17:51.962Z,252.00
2023-01-23T09:18:51.972Z,264.00
2023-01-23T09:19:51.937Z,236.00
2023-01-23T09:20:51.928Z,208.00
2023-01-23T09:21:51.919Z,220.00
2023-01-23T09:22:51.911Z,224.00
2023-01-23T09:23:51.893Z,228.00
2023-01-23T09:24:51.880Z,232.00
2023-01-23T09:25:51.869Z,224.00
2023-01-23T09:26:51.860Z,236.00
2023-01-23T09:27:51.854Z,228.00
2023-01-23T09:28:51.845Z,216.00
2023-01-23T09:29:51.939Z,216.00
2023-01-23T09:30:51.818Z,220.00
2023-01-23T09:31:51.877Z,216.00
2023-01-23T09:32:51.790Z,208.00
2023-01-23T09:33:51.782Z,200.00
2023-01-23T09:34:51.774Z,196.00
2023-01-23T09:35:51.755Z,220.00
2023-01-23T09:36:51.745Z,240.00
2023-01-23T09:37:58.461Z,236.00
2023-01-23T09:38:52.720Z,228.00
2023-01-23T09:39:51.709Z,228.00
2023-01-23T09:40:51.704Z,244.00
2023-01-23T09:41:51.687Z,244.00
2023-01-23T09:42:51.691Z,248.00
2023-01-23T09:43:51.667Z,244.00
2023-01-23T09:44:51.659Z,248.00
2023-01-23T09:45:51.771Z,228.00
2023-01-23T09:46:51.634Z,224.00
2023-01-23T09:47:53.356Z,240.00
2023-01-23T09:48:51.610Z,236.00
2023-01-23T09:49:51.596Z,236.00
2023-01-23T09:50:51.617Z,236.00
2023-01-23T09:51:51.574Z,248.00
2023-01-23T09:52:51.567Z,240.00
2023-01-23T09:53:51.553Z,256.00
2023-01-23T09:54:51.545Z,236.00
2023-01-23T09:55:51.527Z,248.00
2023-01-23T09:56:51.543Z,256.00
2023-01-23T09:57:51.504Z,244.00
2023-01-23T09:58:51.517Z,252.00
2023-01-23T10:00:00.344Z,260.00
2023-01-23T10:00:52.495Z,268.00
2023-01-23T10:01:51.638Z,272.00
2023-01-23T10:02:51.566Z,264.00
2023-01-23T10:03:51.435Z,308.00
2023-01-23T10:04:51.430Z,276.00
2023-01-23T10:05:51.415Z,264.00
2023-01-23T10:06:51.400Z,256.00
2023-01-23T10:07:51.401Z,256.00
2023-01-23T10:08:51.378Z,268.00
2023-01-23T10:09:51.372Z,264.00
2023-01-23T10:10:51.362Z,256.00
2023-01-23T10:11:51.344Z,236.00
2023-01-23T10:12:51.339Z,236.00
2023-01-23T10:13:51.324Z,236.00
2023-01-23T10:14:51.310Z,232.00
2023-01-23T10:15:53.654Z,236.00
2023-01-23T10:16:51.418Z,504.00
2023-01-23T10:17:51.387Z,636.00
2023-01-23T10:18:51.264Z,684.00
2023-01-23T10:19:51.251Z,700.00
2023-01-23T10:20:51.246Z,680.00
2023-01-23T10:21:51.239Z,536.00
2023-01-23T10:22:51.228Z,528.00
2023-01-23T10:23:51.209Z,520.00
2023-01-23T10:24:51.198Z,520.00
2023-01-23T10:25:51.186Z,520.00
2023-01-23T10:26:51.174Z,516.00
2023-01-23T10:27:51.162Z,516.00
2023-01-23T10:28:51.158Z,528.00
2023-01-23T10:29:51.165Z,520.00
2023-01-23T10:30:51.247Z,532.00
2023-01-23T10:31:51.208Z,536.00
2023-01-23T10:32:51.118Z,524.00
2023-01-23T10:33:51.211Z,520.00
2023-01-23T10:34:51.089Z,524.00
2023-01-23T10:35:51.068Z,532.00
2023-01-23T10:36:54.752Z,524.00
2023-01-23T10:37:51.050Z,524.00
2023-01-23T10:38:51.053Z,520.00
2023-01-23T10:39:51.037Z,520.00
2023-01-23T10:40:51.020Z,520.00
2023-01-23T10:41:54.344Z,532.00
2023-01-23T10:42:51.992Z,520.00
2023-01-23T10:43:50.990Z,520.00
2023-01-23T10:44:50.977Z,528.00
2023-01-23T10:45:50.966Z,520.00
2023-01-23T10:46:53.821Z,520.00
2023-01-23T10:47:55.072Z,524.00
2023-01-23T10:48:50.937Z,524.00
2023-01-23T10:49:51.034Z,524.00
2023-01-23T10:50:50.925Z,528.00
2023-01-23T10:51:50.892Z,524.00
2023-01-23T10:52:50.881Z,536.00
2023-01-23T10:53:50.864Z,532.00
2023-01-23T10:54:50.855Z,536.00
2023-01-23T10:55:50.849Z,532.00
2023-01-23T10:56:50.859Z,524.00
2023-01-23T10:57:50.819Z,528.00
2023-01-23T10:58:50.812Z,528.00
2023-01-23T10:59:50.808Z,528.00
2023-01-23T11:00:50.791Z,524.00
2023-01-23T11:01:57.283Z,528.00
2023-01-23T11:02:51.795Z,524.00
2023-01-23T11:03:50.749Z,524.00
2023-01-23T11:04:50.790Z,532.00
2023-01-23T11:05:53.122Z,540.00
2023-01-23T11:06:50.715Z,528.00
2023-01-23T11:07:50.705Z,536.00
2023-01-23T11:08:50.696Z,532.00
2023-01-23T11:09:50.683Z,520.00
2023-01-23T11:10:50.677Z,540.00
2023-01-23T11:11:50.662Z,524.00
2023-01-23T11:12:50.654Z,524.00
2023-01-23T11:13:50.639Z,528.00
2023-01-23T11:14:50.628Z,524.00
2023-01-23T11:15:50.645Z,540.00
2023-01-23T11:16:50.609Z,540.00
2023-01-23T11:17:50.591Z,528.00
2023-01-23T11:18:50.579Z,540.00
2023-01-23T11:19:50.571Z,536.00
2023-01-23T11:20:50.587Z,536.00
2023-01-23T11:21:50.667Z,532.00
2023-01-23T11:22:50.538Z,528.00
2023-01-23T11:23:50.522Z,528.00
2023-01-23T11:24:50.519Z,540.00
2023-01-23T11:25:50.501Z,532.00
2023-01-23T11:26:50.487Z,536.00
2023-01-23T11:27:50.482Z,528.00
2023-01-23T11:28:50.471Z,528.00
2023-01-23T11:29:50.454Z,536.00
2023-01-23T11:30:54.238Z,536.00
2023-01-23T11:31:51.528Z,532.00
2023-01-23T11:32:50.421Z,532.00
2023-01-23T11:33:50.410Z,532.00
2023-01-23T11:34:50.409Z,532.00
2023-01-23T11:35:50.385Z,524.00
2023-01-23T11:36:50.373Z,528.00
2023-01-23T11:37:50.475Z,528.00
2023-01-23T11:38:52.728Z,528.00
2023-01-23T11:39:50.342Z,524.00
2023-01-23T11:40:50.338Z,528.00
2023-01-23T11:41:50.327Z,540.00
2023-01-23T11:42:50.303Z,532.00
2023-01-23T11:43:50.297Z,540.00
2023-01-23T11:44:50.283Z,536.00
2023-01-23T11:45:50.302Z,536.00
2023-01-23T11:46:50.266Z,524.00
2023-01-23T11:47:50.258Z,532.00
2023-01-23T11:48:50.238Z,540.00
2023-01-23T11:49:51.391Z,540.00
2023-01-23T11:50:55.303Z,528.00
2023-01-23T11:51:51.207Z,532.00
2023-01-23T11:52:50.193Z,536.00
2023-01-23T11:53:50.325Z,544.00
2023-01-23T11:54:50.199Z,536.00
2023-01-23T11:55:50.443Z,536.00
2023-01-23T11:56:50.145Z,536.00
2023-01-23T11:57:50.154Z,540.00
2023-01-23T11:58:50.600Z,540.00
2023-01-23T11:59:50.112Z,544.00
2023-01-23T12:00:50.102Z,536.00
2023-01-23T12:02:02.557Z,540.00
2023-01-23T12:02:51.163Z,552.00
2023-01-23T12:03:50.201Z,556.00
2023-01-23T12:04:50.143Z,548.00
2023-01-23T12:05:50.046Z,556.00
2023-01-23T12:06:50.036Z,544.00
2023-01-23T12:07:50.019Z,564.00
2023-01-23T12:08:50.044Z,552.00
2023-01-23T12:09:50.111Z,552.00
2023-01-23T12:10:49.986Z,552.00
2023-01-23T12:11:49.976Z,552.00
2023-01-23T12:12:49.962Z,556.00
2023-01-23T12:13:49.951Z,564.00
2023-01-23T12:14:49.975Z,560.00
2023-01-23T12:15:50.017Z,560.00
2023-01-23T12:16:49.921Z,560.00
2023-01-23T12:17:49.906Z,560.00
2023-01-23T12:18:49.901Z,560.00
2023-01-23T12:19:49.885Z,560.00
2023-01-23T12:20:49.877Z,568.00
2023-01-23T12:21:49.862Z,560.00
2023-01-23T12:22:49.851Z,572.00
2023-01-23T12:23:49.848Z,556.00
2023-01-23T12:24:49.911Z,572.00
2023-01-23T12:25:49.948Z,568.00
2023-01-23T12:26:49.813Z,560.00
2023-01-23T12:27:49.796Z,556.00
2023-01-23T12:28:49.783Z,560.00
2023-01-23T12:29:49.768Z,564.00
2023-01-23T12:30:49.758Z,556.00
2023-01-23T12:31:49.893Z,564.00
2023-01-23T12:32:49.745Z,572.00
2023-01-23T12:33:49.733Z,564.00
2023-01-23T12:34:49.716Z,564.00
2023-01-23T12:35:49.700Z,568.00
2023-01-23T12:37:08.252Z,568.00
2023-01-23T12:37:50.695Z,556.00
2023-01-23T12:38:49.665Z,572.00
2023-01-23T12:39:49.662Z,560.00
2023-01-23T12:40:49.655Z,564.00
2023-01-23T12:41:49.749Z,572.00
2023-01-23T12:42:49.632Z,568.00
2023-01-23T12:43:49.613Z,560.00
2023-01-23T12:44:49.656Z,560.00
2023-01-23T12:45:49.585Z,564.00
2023-01-23T12:46:49.696Z,572.00
2023-01-23T12:47:49.576Z,568.00
2023-01-23T12:48:49.557Z,560.00
2023-01-23T12:49:49.552Z,560.00
2023-01-23T12:50:50.092Z,568.00
2023-01-23T12:51:49.525Z,568.00
2023-01-23T12:52:49.519Z,568.00
2023-01-23T12:53:49.496Z,560.00
2023-01-23T12:54:49.483Z,568.00
2023-01-23T12:55:49.482Z,556.00
2023-01-23T12:58:00.043Z,568.00